Time;durP1;ratioP1;P1;durP2;ratioP2;P2;SDS_P1;SDS_P2;PMS_P1;PMS_P2;Temp;Humidity;BMP_temperature;BMP_pressure;BME280_temperature;BME280_humidity;BME280_pressure;Samples;Min_cycle;Max_cycle;Signal;HPM_P1;HPM_P2
2023/10/10 00:01:07;;;;;;;125.80;16.83;;;;;;;;;;5100107;28;20517;-43
2023/10/10 00:03:40;;;;;;;123.93;17.73;;;;;;;;;;5103204;28;20051;-40
2023/10/10 00:06:08;;;;;;;127.82;15.80;;;;;;;;;;5102686;28;20107;-40
2023/10/10 00:08:40;;;;;;;138.43;17.75;;;;;;;;;;5108048;28;20089;-39
2023/10/10 00:11:14;;;;;;;162.18;18.75;;;;;;;;;;5109995;28;20389;-41
2023/10/10 00:13:53;;;;;;;148.98;18.60;;;;;;;;;;5107366;28;20067;-43
2023/10/10 00:16:34;;;;;;;152.63;18.88;;;;;;;;;;5102469;28;20688;-38
2023/10/10 00:19:11;;;;;;;141.93;18.52;;;;;;;;;;5101452;28;20390;-35
2023/10/10 00:21:41;;;;;;;174.80;20.90;;;;;;;;;;5100734;28;20048;-35
2023/10/10 00:24:12;;;;;;;142.80;18.63;;;;;;;;;;5102320;28;20035;-36
2023/10/10 00:26:43;;;;;;;148.18;19.13;;;;;;;;;;5102036;28;20057;-38
2023/10/10 00:29:11;;;;;;;122.05;18.75;;;;;;;;;;5098437;28;20049;-38
2023/10/10 00:31:38;;;;;;;127.35;19.75;;;;;;;;;;5101980;28;20459;-43
2023/10/10 00:34:07;;;;;;;112.18;17.35;;;;;;;;;;5102255;28;20023;-36
2023/10/10 00:36:35;;;;;;;124.90;19.50;;;;;;;;;;5102687;28;20032;-35
2023/10/10 00:41:50;;;;;;;128.38;19.15;;;;;;;;;;5106256;28;20058;-35
2023/10/10 00:44:18;;;;;;;120.28;20.73;;;;;;;;;;5111740;28;20031;-40
2023/10/10 00:46:56;;;;;;;136.05;21.40;;;;;;;;;;5112043;28;20111;-40
2023/10/10 00:49:24;;;;;;;107.88;20.25;;;;;;;;;;5111141;28;20024;-36
2023/10/10 00:51:55;;;;;;;107.97;19.35;;;;;;;;;;5111797;28;20081;-36
2023/10/10 00:54:26;;;;;;;105.18;18.33;;;;;;;;;;5111929;28;20062;-37
2023/10/10 00:56:55;;;;;;;111.95;19.35;;;;;;;;;;5111950;28;20028;-40
2023/10/10 00:59:35;;;;;;;108.18;18.33;;;;;;;;;;5099599;28;20044;-41
2023/10/10 01:02:06;;;;;;;100.50;17.27;;;;;;;;;;5111416;28;20039;-39
2023/10/10 01:04:49;;;;;;;118.75;18.63;;;;;;;;;;5111126;28;20035;-39
2023/10/10 01:07:21;;;;;;;100.13;17.45;;;;;;;;;;5109812;28;20024;-38
2023/10/10 01:10:32;;;;;;;96.10;19.08;;;;;;;;;;5111531;28;20109;-35
2023/10/10 01:12:40;;;;;;;95.43;17.42;;;;;;;;;;5097392;28;20092;-40
2023/10/10 01:17:45;;;;;;;81.63;15.18;;;;;;;;;;5111523;28;20438;-38
2023/10/10 01:20:24;;;;;;;82.25;14.75;;;;;;;;;;5110706;28;20035;-40
2023/10/10 01:22:56;;;;;;;91.57;17.10;;;;;;;;;;5111051;28;20040;-34
2023/10/10 01:33:29;;;;;;;84.10;15.27;;;;;;;;;;5098574;28;20024;-38
2023/10/10 01:35:56;;;;;;;77.00;14.65;;;;;;;;;;5095760;28;20081;-41
2023/10/10 01:38:27;;;;;;;72.28;14.43;;;;;;;;;;5091191;28;20036;-42
2023/10/10 01:41:15;;;;;;;69.88;14.63;;;;;;;;;;5091122;28;20039;-40
2023/10/10 01:43:53;;;;;;;72.80;14.60;;;;;;;;;;5091324;28;20085;-40
2023/10/10 01:46:29;;;;;;;71.78;14.18;;;;;;;;;;5091302;28;20229;-38
2023/10/10 01:48:58;;;;;;;69.43;13.38;;;;;;;;;;5095017;28;20023;-42
2023/10/10 01:51:33;;;;;;;65.47;13.93;;;;;;;;;;5090539;28;20039;-43
2023/10/10 01:54:06;;;;;;;60.53;12.70;;;;;;;;;;5083776;28;20071;-40
2023/10/10 01:56:34;;;;;;;64.43;12.70;;;;;;;;;;5098459;28;20425;-45
2023/10/10 01:59:25;;;;;;;72.10;13.02;;;;;;;;;;5097473;28;20115;-42
2023/10/10 02:01:58;;;;;;;59.70;12.73;;;;;;;;;;5094169;28;20044;-45
2023/10/10 02:04:34;;;;;;;66.35;13.27;;;;;;;;;;5086923;28;20035;-44
2023/10/10 02:07:06;;;;;;;63.60;12.25;;;;;;;;;;5094296;28;20496;-44
2023/10/10 02:09:40;;;;;;;45.42;11.30;;;;;;;;;;5101488;28;20066;-44
2023/10/10 02:12:16;;;;;;;65.25;12.57;;;;;;;;;;5102128;28;20028;-44
2023/10/10 02:14:43;;;;;;;53.35;11.63;;;;;;;;;;5108329;28;20032;-44
2023/10/10 02:17:22;;;;;;;51.63;10.90;;;;;;;;;;5111359;28;20143;-43
2023/10/10 02:20:50;;;;;;;41.95;10.93;;;;;;;;;;5111455;28;20393;-44
2023/10/10 02:22:49;;;;;;;55.40;10.77;;;;;;;;;;5099952;28;20096;-44
2023/10/10 02:30:46;;;;;;;38.67;9.27;;;;;;;;;;5111340;28;20073;-36
2023/10/10 02:35:57;;;;;;;39.70;10.00;;;;;;;;;;5113676;28;20059;-43
2023/10/10 02:38:55;;;;;;;45.63;9.75;;;;;;;;;;5114614;28;20061;-44
2023/10/10 02:46:35;;;;;;;34.45;9.65;;;;;;;;;;5098249;28;20420;-44
2023/10/10 02:49:13;;;;;;;33.70;9.45;;;;;;;;;;5114338;28;20409;-44
2023/10/10 02:51:42;;;;;;;32.58;8.52;;;;;;;;;;5114825;28;20032;-42
2023/10/10 02:57:27;;;;;;;33.30;8.07;;;;;;;;;;5041148;28;20128;-43
2023/10/10 03:00:28;;;;;;;32.67;8.40;;;;;;;;;;5096213;28;20027;-43
2023/10/10 03:02:53;;;;;;;31.83;7.72;;;;;;;;;;5110136;28;20424;-44
2023/10/10 03:05:39;;;;;;;;;;;;;;;;;;5114948;28;20116;-42
2023/10/10 03:08:14;;;;;;;34.47;7.97;;;;;;;;;;5095857;28;20007;-43
2023/10/10 03:10:46;;;;;;;29.85;7.65;;;;;;;;;;5114269;28;20501;-43
2023/10/10 03:13:28;;;;;;;;;;;;;;;;;;5114390;28;20110;-43
2023/10/10 03:19:13;;;;;;;29.83;8.07;;;;;;;;;;5114093;28;20028;-41
2023/10/10 03:27:37;;;;;;;23.50;6.47;;;;;;;;;;5113884;28;20035;-41
2023/10/10 03:29:50;;;;;;;27.10;6.82;;;;;;;;;;5113700;28;20078;-41
2023/10/10 03:32:34;;;;;;;23.85;6.47;;;;;;;;;;5113552;28;20065;-41
2023/10/10 03:35:20;;;;;;;26.77;7.10;;;;;;;;;;5095403;28;20031;-42
2023/10/10 03:38:04;;;;;;;26.80;6.82;;;;;;;;;;5113549;28;20039;-40
2023/10/10 05:23:34;;;;;;;13.05;4.13;;;;;;;;;;5112358;28;20050;-40
2023/10/10 05:26:02;;;;;;;13.68;4.00;;;;;;;;;;5112050;28;20028;-41
2023/10/10 05:28:32;;;;;;;14.90;3.80;;;;;;;;;;5111733;28;20036;-41
2023/10/10 05:31:02;;;;;;;10.07;3.70;;;;;;;;;;5111857;28;20036;-41
2023/10/10 05:33:30;;;;;;;10.70;3.90;;;;;;;;;;5111741;28;20027;-41
2023/10/10 05:35:58;;;;;;;10.52;3.38;;;;;;;;;;5111959;28;20501;-41
2023/10/10 05:38:25;;;;;;;10.60;3.17;;;;;;;;;;5111728;28;20024;-41
2023/10/10 05:40:52;;;;;;;11.65;3.67;;;;;;;;;;5111846;28;20111;-41
2023/10/10 05:43:26;;;;;;;9.73;3.20;;;;;;;;;;5111897;28;20023;-41
2023/10/10 05:45:55;;;;;;;9.25;3.10;;;;;;;;;;5111692;28;20110;-41
2023/10/10 05:48:23;;;;;;;9.73;3.15;;;;;;;;;;5111727;28;20031;-41
2023/10/10 05:50:50;;;;;;;9.82;3.35;;;;;;;;;;5111650;28;20032;-43
2023/10/10 05:53:18;;;;;;;8.32;2.83;;;;;;;;;;5111662;28;20032;-41
2023/10/10 05:55:50;;;;;;;8.85;3.17;;;;;;;;;;5111727;28;20036;-41
2023/10/10 05:58:20;;;;;;;9.90;3.08;;;;;;;;;;5111476;28;20414;-41
2023/10/10 06:00:48;;;;;;;8.63;2.80;;;;;;;;;;5109327;28;20085;-38
2023/10/10 06:03:19;;;;;;;9.55;3.03;;;;;;;;;;5091203;28;20039;-40
2023/10/10 06:05:48;;;;;;;6.20;2.65;;;;;;;;;;5073085;28;20055;-40
2023/10/10 06:08:15;;;;;;;7.38;2.67;;;;;;;;;;5091122;28;20051;-41
2023/10/10 06:10:42;;;;;;;8.52;3.20;;;;;;;;;;5094028;28;20024;-42
2023/10/10 06:13:11;;;;;;;6.88;2.88;;;;;;;;;;5095142;28;20028;-41
2023/10/10 06:15:38;;;;;;;9.27;3.22;;;;;;;;;;5094879;28;20035;-41
2023/10/10 06:18:11;;;;;;;9.43;2.92;;;;;;;;;;5094929;28;20113;-40
2023/10/10 06:20:41;;;;;;;10.38;2.63;;;;;;;;;;5094678;28;20410;-41
2023/10/10 06:23:14;;;;;;;7.60;3.15;;;;;;;;;;5094770;28;20032;-41
2023/10/10 06:25:41;;;;;;;5.57;2.45;;;;;;;;;;5094690;28;20386;-41
2023/10/10 06:28:26;;;;;;;7.47;2.80;;;;;;;;;;5094831;28;20032;-41
2023/10/10 06:30:59;;;;;;;11.77;3.15;;;;;;;;;;5094707;28;20028;-40
2023/10/10 06:33:29;;;;;;;6.95;2.50;;;;;;;;;;5094917;28;20500;-41
2023/10/10 06:41:40;;;;;;;7.60;2.83;;;;;;;;;;5094752;28;20055;-41
2023/10/10 06:44:13;;;;;;;9.63;3.13;;;;;;;;;;5094434;28;20127;-41
2023/10/10 06:46:40;;;;;;;6.32;2.33;;;;;;;;;;5094417;28;20495;-43
2023/10/10 06:49:11;;;;;;;6.13;2.67;;;;;;;;;;5094489;28;20055;-42
2023/10/10 06:51:41;;;;;;;10.70;2.38;;;;;;;;;;5094286;28;20039;-41
2023/10/10 06:54:12;;;;;;;6.28;2.70;;;;;;;;;;5094376;28;20032;-43
2023/10/10 06:59:28;;;;;;;8.00;2.30;;;;;;;;;;5094559;28;20058;-41
2023/10/10 07:01:59;;;;;;;6.32;2.90;;;;;;;;;;5094173;28;20024;-39
2023/10/10 07:04:35;;;;;;;6.93;2.43;;;;;;;;;;5094039;28;20478;-41
2023/10/10 07:07:05;;;;;;;6.82;2.30;;;;;;;;;;5093820;28;20774;-41
2023/10/10 07:09:36;;;;;;;5.85;2.53;;;;;;;;;;5093869;28;20040;-41
2023/10/10 07:12:14;;;;;;;6.40;2.13;;;;;;;;;;5093849;28;20524;-41
2023/10/10 07:14:45;;;;;;;7.40;2.53;;;;;;;;;;5093981;28;20032;-42
2023/10/10 07:17:15;;;;;;;6.63;2.53;;;;;;;;;;5093818;28;20036;-43
2023/10/10 07:22:36;;;;;;;5.75;2.65;;;;;;;;;;5093611;28;20477;-40
2023/10/10 07:25:17;;;;;;;5.72;2.33;;;;;;;;;;5093748;28;20032;-41
2023/10/10 07:27:44;;;;;;;10.52;2.67;;;;;;;;;;5093427;28;20424;-41
2023/10/10 07:30:18;;;;;;;6.82;2.15;;;;;;;;;;5093643;28;20103;-41
2023/10/10 07:32:48;;;;;;;8.65;2.30;;;;;;;;;;5093523;28;20043;-39
2023/10/10 07:35:16;;;;;;;7.40;2.13;;;;;;;;;;5093521;28;20024;-43
2023/10/10 07:37:45;;;;;;;4.03;1.88;;;;;;;;;;5093328;28;20035;-41
2023/10/10 07:42:58;;;;;;;7.82;2.40;;;;;;;;;;5093574;28;20115;-39
2023/10/10 07:45:34;;;;;;;6.30;1.70;;;;;;;;;;5093203;28;20027;-42
2023/10/10 07:50:35;;;;;;;3.17;1.55;;;;;;;;;;5093263;28;20063;-41
2023/10/10 07:53:05;;;;;;;5.05;1.98;;;;;;;;;;5093217;28;20024;-41
2023/10/10 07:55:59;;;;;;;5.50;1.70;;;;;;;;;;5092963;28;20036;-41
2023/10/10 07:58:29;;;;;;;4.55;1.98;;;;;;;;;;5091947;28;20028;-41
2023/10/10 08:01:40;;;;;;;4.72;1.60;;;;;;;;;;5092808;28;20031;-43
2023/10/10 08:03:50;;;;;;;7.28;2.35;;;;;;;;;;5081923;28;20097;-41
2023/10/10 08:06:27;;;;;;;4.63;1.90;;;;;;;;;;5092726;28;20012;-41
2023/10/10 08:11:56;;;;;;;4.57;1.80;;;;;;;;;;5010635;28;20566;-42
2023/10/10 08:14:30;;;;;;;5.03;1.85;;;;;;;;;;5076193;28;20058;-41
2023/10/10 08:17:02;;;;;;;4.93;1.63;;;;;;;;;;5092519;28;20115;-41
2023/10/10 08:19:33;;;;;;;6.90;1.92;;;;;;;;;;5092573;28;20481;-43
2023/10/10 08:22:12;;;;;;;2.13;1.25;;;;;;;;;;5092319;28;20067;-43
2023/10/10 08:24:43;;;;;;;4.10;1.70;;;;;;;;;;5092418;28;20485;-41
2023/10/10 08:27:11;;;;;;;4.32;2.03;;;;;;;;;;5092525;28;20431;-40
2023/10/10 08:29:41;;;;;;;4.47;1.60;;;;;;;;;;5092542;28;20012;-41
2023/10/10 08:32:08;;;;;;;3.80;1.75;;;;;;;;;;5091724;28;20024;-40
2023/10/10 08:34:42;;;;;;;3.40;1.70;;;;;;;;;;5092417;28;20386;-40
2023/10/10 08:37:10;;;;;;;6.47;1.92;;;;;;;;;;5092151;28;20059;-40
2023/10/10 08:39:39;;;;;;;4.57;1.60;;;;;;;;;;5092385;28;20016;-41
2023/10/10 08:42:16;;;;;;;6.20;1.60;;;;;;;;;;5092008;28;20457;-39
2023/10/10 08:44:47;;;;;;;4.40;1.95;;;;;;;;;;5092262;28;20023;-37
2023/10/10 08:47:19;;;;;;;4.53;1.85;;;;;;;;;;5091922;28;20027;-39
2023/10/10 08:49:47;;;;;;;4.85;1.65;;;;;;;;;;5092028;28;20047;-41
2023/10/10 08:52:17;;;;;;;4.20;2.00;;;;;;;;;;5091900;28;20036;-41
2023/10/10 08:54:44;;;;;;;6.25;1.92;;;;;;;;;;5092098;28;20028;-41
2023/10/10 08:57:11;;;;;;;3.85;1.27;;;;;;;;;;5092050;28;20047;-39
2023/10/10 08:59:45;;;;;;;4.43;1.67;;;;;;;;;;5091987;28;20387;-38
2023/10/10 09:02:15;;;;;;;3.78;1.35;;;;;;;;;;5091658;28;20044;-40
2023/10/10 09:04:43;;;;;;;4.43;1.60;;;;;;;;;;5091781;28;20036;-34
2023/10/10 09:07:20;;;;;;;3.42;1.50;;;;;;;;;;5091902;28;20031;-35
2023/10/10 09:10:04;;;;;;;4.22;1.65;;;;;;;;;;5091718;28;20107;-34
2023/10/10 09:12:34;;;;;;;3.33;1.60;;;;;;;;;;5091685;28;20161;-33
2023/10/10 09:15:16;;;;;;;4.13;1.65;;;;;;;;;;5091907;28;20499;-39
2023/10/10 09:17:45;;;;;;;3.72;1.75;;;;;;;;;;5091542;28;20031;-37
2023/10/10 09:20:22;;;;;;;6.25;1.90;;;;;;;;;;5091375;28;20418;-36
2023/10/10 09:22:56;;;;;;;13.07;1.80;;;;;;;;;;5091473;28;20039;-34
2023/10/10 09:25:26;;;;;;;6.00;1.80;;;;;;;;;;5091555;28;20088;-36
2023/10/10 09:27:59;;;;;;;5.63;1.73;;;;;;;;;;5091411;28;20120;-34
2023/10/10 09:30:34;;;;;;;16.52;2.85;;;;;;;;;;5091692;28;20672;-35
2023/10/10 09:33:22;;;;;;;12.20;2.35;;;;;;;;;;5091729;28;20032;-34
2023/10/10 09:35:53;;;;;;;5.38;1.75;;;;;;;;;;5091407;28;20050;-35
2023/10/10 09:38:26;;;;;;;8.07;2.03;;;;;;;;;;5091345;28;20024;-33
2023/10/10 09:41:10;;;;;;;11.50;2.22;;;;;;;;;;5091287;28;20509;-35
2023/10/10 09:50:00;;;;;;;20.20;3.10;;;;;;;;;;5095628;28;20039;-34
2023/10/10 10:00:46;;;;;;;9.85;2.20;;;;;;;;;;5095640;28;20028;-35
2023/10/10 10:05:58;;;;;;;20.88;2.92;;;;;;;;;;5095451;28;20028;-37
2023/10/10 10:08:37;;;;;;;9.18;2.22;;;;;;;;;;5110020;28;20604;-40
2023/10/10 10:11:17;;;;;;;19.70;3.17;;;;;;;;;;5115414;28;20032;-39
2023/10/10 10:14:12;;;;;;;18.13;2.92;;;;;;;;;;5107210;28;20024;-37
2023/10/10 10:16:48;;;;;;;11.55;2.63;;;;;;;;;;5078193;28;20023;-35
2023/10/10 10:19:18;;;;;;;10.13;2.50;;;;;;;;;;5087028;28;20562;-37
2023/10/10 10:22:48;;;;;;;10.27;2.40;;;;;;;;;;5103454;28;20090;-39
2023/10/10 10:24:46;;;;;;;16.67;2.47;;;;;;;;;;5077030;28;20145;-40
2023/10/10 10:27:35;;;;;;;14.23;2.40;;;;;;;;;;5104778;28;20028;-44
2023/10/10 10:30:46;;;;;;;19.55;3.28;;;;;;;;;;5103157;28;20066;-45
2023/10/10 10:33:09;;;;;;;13.68;3.13;;;;;;;;;;5104338;28;20114;-42
2023/10/10 10:35:56;;;;;;;14.30;2.78;;;;;;;;;;5104985;28;20039;-42
2023/10/10 10:38:24;;;;;;;21.85;3.25;;;;;;;;;;5103063;28;20044;-41
2023/10/10 10:41:04;;;;;;;19.08;2.92;;;;;;;;;;5103351;28;20427;-43
2023/10/10 10:43:38;;;;;;;17.33;3.42;;;;;;;;;;5101619;28;20040;-42
2023/10/10 10:46:14;;;;;;;35.40;4.05;;;;;;;;;;5114521;28;20085;-42
2023/10/10 10:48:54;;;;;;;36.00;3.88;;;;;;;;;;5095879;28;20085;-42
2023/10/10 10:51:41;;;;;;;21.00;3.05;;;;;;;;;;5114472;28;20047;-42
2023/10/10 10:57:03;;;;;;;30.48;3.88;;;;;;;;;;5114078;28;20047;-42
2023/10/10 10:59:36;;;;;;;26.77;3.58;;;;;;;;;;5114197;28;20478;-41
2023/10/10 11:02:14;;;;;;;43.17;5.03;;;;;;;;;;5113874;28;20023;-44
2023/10/10 11:04:42;;;;;;;24.75;3.78;;;;;;;;;;5095274;28;20047;-42
2023/10/10 11:07:15;;;;;;;98.82;8.32;;;;;;;;;;5093714;28;20032;-42
2023/10/10 11:09:52;;;;;;;33.28;3.95;;;;;;;;;;5093855;28;20503;-41
2023/10/10 11:12:31;;;;;;;28.60;3.85;;;;;;;;;;5094071;28;20040;-43
2023/10/10 11:14:58;;;;;;;31.08;3.50;;;;;;;;;;5100094;28;20042;-42
2023/10/10 11:17:25;;;;;;;51.45;4.22;;;;;;;;;;5112072;28;20054;-42
2023/10/10 11:19:57;;;;;;;24.05;3.88;;;;;;;;;;5113314;28;20026;-41
2023/10/10 11:22:39;;;;;;;32.40;4.90;;;;;;;;;;5112917;28;20047;-41
2023/10/10 11:25:06;;;;;;;;;;;;;;;;;;5112522;28;20363;-41
2023/10/10 11:27:43;;;;;;;32.17;4.18;;;;;;;;;;5113234;28;19918;-43
2023/10/10 11:30:24;;;;;;;40.72;4.13;;;;;;;;;;5112205;28;20039;-40
2023/10/10 11:33:16;;;;;;;33.88;4.60;;;;;;;;;;5112333;28;20031;-41
2023/10/10 11:35:38;;;;;;;54.63;5.85;;;;;;;;;;5113464;28;20039;-41
2023/10/10 11:38:15;;;;;;;350.25;14.98;;;;;;;;;;5107410;28;20024;-39
2023/10/10 11:40:43;;;;;;;147.93;9.48;;;;;;;;;;5112874;28;20457;-39
2023/10/10 11:43:17;;;;;;;81.88;7.80;;;;;;;;;;5111438;28;20043;-41
2023/10/10 11:45:54;;;;;;;142.23;10.38;;;;;;;;;;5112624;28;20130;-41
2023/10/10 11:48:23;;;;;;;70.38;7.15;;;;;;;;;;5113502;28;20141;-41
2023/10/10 11:50:51;;;;;;;83.00;6.40;;;;;;;;;;5112156;28;20054;-41
2023/10/10 11:53:27;;;;;;;185.30;13.68;;;;;;;;;;5111377;28;20508;-40
2023/10/10 11:56:13;;;;;;;218.98;14.70;;;;;;;;;;5112465;28;20397;-41
2023/10/10 11:58:40;;;;;;;124.82;10.38;;;;;;;;;;5112108;28;20035;-41
2023/10/10 12:01:08;;;;;;;101.18;11.20;;;;;;;;;;5112546;28;20114;-43
2023/10/10 12:06:14;;;;;;;101.57;8.95;;;;;;;;;;5094927;28;20115;-45
2023/10/10 12:08:53;;;;;;;277.40;24.92;;;;;;;;;;5112033;28;20036;-45
2023/10/10 12:11:21;;;;;;;156.27;12.77;;;;;;;;;;5112588;28;20098;-47
2023/10/10 12:13:50;;;;;;;119.63;8.75;;;;;;;;;;5112781;28;20125;-45
2023/10/10 12:16:17;;;;;;;91.20;8.27;;;;;;;;;;5112043;28;20053;-47
2023/10/10 12:18:49;;;;;;;71.22;6.55;;;;;;;;;;5112845;28;20042;-42
2023/10/10 12:21:22;;;;;;;49.28;5.30;;;;;;;;;;5112147;28;20054;-44
2023/10/10 12:23:56;;;;;;;108.50;10.05;;;;;;;;;;5112176;28;20023;-46
2023/10/10 12:26:24;;;;;;;103.68;7.88;;;;;;;;;;5112257;28;20493;-42
2023/10/10 12:28:54;;;;;;;146.68;10.43;;;;;;;;;;5112519;28;20073;-48
2023/10/10 12:31:22;;;;;;;125.03;9.45;;;;;;;;;;5112050;28;20031;-47
2023/10/10 12:33:49;;;;;;;178.70;10.45;;;;;;;;;;5112173;28;20038;-48
2023/10/10 12:36:16;;;;;;;131.10;10.85;;;;;;;;;;5112341;28;20028;-44
2023/10/10 12:38:44;;;;;;;954.22;66.03;;;;;;;;;;5112074;28;20027;-45
2023/10/10 12:41:20;;;;;;;115.15;8.63;;;;;;;;;;5112218;28;20044;-49
2023/10/10 12:43:47;;;;;;;86.68;7.85;;;;;;;;;;5111727;28;20133;-45
2023/10/10 12:46:17;;;;;;;96.00;6.55;;;;;;;;;;5112266;28;20027;-46
2023/10/10 12:48:49;;;;;;;59.88;4.63;;;;;;;;;;5111968;28;20039;-45
2023/10/10 12:51:15;;;;;;;171.43;13.90;;;;;;;;;;5112098;28;20111;-43
2023/10/10 12:53:42;;;;;;;85.97;8.27;;;;;;;;;;5112316;28;20036;-46
2023/10/10 12:56:16;;;;;;;83.68;7.93;;;;;;;;;;5111693;28;20043;-43
2023/10/10 12:58:51;;;;;;;64.13;7.57;;;;;;;;;;5111925;28;20045;-44
2023/10/10 13:01:23;;;;;;;79.18;7.00;;;;;;;;;;5110820;28;20047;-41
2023/10/10 13:03:51;;;;;;;64.32;6.15;;;;;;;;;;5111781;28;20106;-40
2023/10/10 13:06:18;;;;;;;179.07;9.00;;;;;;;;;;5111626;28;20024;-48
2023/10/10 13:11:32;;;;;;;101.05;6.22;;;;;;;;;;5111524;28;20027;-45
2023/10/10 13:14:09;;;;;;;78.72;4.10;;;;;;;;;;5111357;28;20032;-48
2023/10/10 13:19:12;;;;;;;237.73;19.65;;;;;;;;;;5110981;28;20034;-45
2023/10/10 13:21:43;;;;;;;110.32;7.97;;;;;;;;;;5111675;28;20047;-48
2023/10/10 13:24:11;;;;;;;104.32;9.35;;;;;;;;;;5111750;28;20106;-43
2023/10/10 13:26:39;;;;;;;78.85;6.00;;;;;;;;;;5111454;28;20049;-41
2023/10/10 13:29:06;;;;;;;68.25;6.55;;;;;;;;;;5111392;28;20055;-42
2023/10/10 13:31:33;;;;;;;51.03;5.68;;;;;;;;;;5111049;28;20024;-45
2023/10/10 13:34:01;;;;;;;56.22;6.38;;;;;;;;;;5111406;28;20024;-42
2023/10/10 13:36:28;;;;;;;57.38;6.05;;;;;;;;;;5111488;28;20035;-41
2023/10/10 13:38:59;;;;;;;50.33;5.15;;;;;;;;;;5110933;28;20053;-44
2023/10/10 13:41:31;;;;;;;47.70;4.80;;;;;;;;;;5111382;28;20040;-41
2023/10/10 13:43:59;;;;;;;72.35;7.35;;;;;;;;;;5098651;28;20036;-44
2023/10/10 13:46:32;;;;;;;82.40;7.53;;;;;;;;;;5111212;28;20092;-41
2023/10/10 13:48:59;;;;;;;77.63;7.63;;;;;;;;;;5111492;28;20423;-41
2023/10/10 13:51:39;;;;;;;64.25;6.28;;;;;;;;;;5111651;28;20039;-43
2023/10/10 13:54:06;;;;;;;49.10;5.88;;;;;;;;;;5111369;28;20032;-41
2023/10/10 13:56:33;;;;;;;70.30;6.03;;;;;;;;;;5110988;28;20461;-41
2023/10/10 13:59:00;;;;;;;59.97;6.60;;;;;;;;;;5111347;28;20057;-44
2023/10/10 14:01:36;;;;;;;61.03;6.78;;;;;;;;;;5110218;28;20061;-41
2023/10/10 14:04:13;;;;;;;69.97;5.95;;;;;;;;;;5111273;28;20115;-42
2023/10/10 14:06:47;;;;;;;53.70;5.43;;;;;;;;;;5111198;28;20118;-40
2023/10/10 14:09:31;;;;;;;61.65;5.93;;;;;;;;;;5110645;28;20043;-42
2023/10/10 14:12:01;;;;;;;61.85;7.88;;;;;;;;;;5111316;28;20053;-41
2023/10/10 14:14:28;;;;;;;61.78;8.23;;;;;;;;;;5111027;28;20107;-45
2023/10/10 14:16:56;;;;;;;65.95;7.45;;;;;;;;;;5111265;28;20040;-43
2023/10/10 14:19:26;;;;;;;76.10;8.07;;;;;;;;;;5110425;28;20044;-44
2023/10/10 14:21:53;;;;;;;83.35;8.45;;;;;;;;;;5110792;28;20105;-42
2023/10/10 14:24:21;;;;;;;87.95;7.80;;;;;;;;;;5111042;28;20506;-41
2023/10/10 14:26:48;;;;;;;74.70;9.23;;;;;;;;;;5111253;28;20055;-41
2023/10/10 14:29:15;;;;;;;67.90;7.07;;;;;;;;;;5110927;28;20026;-40
2023/10/10 14:31:44;;;;;;;72.50;6.50;;;;;;;;;;5113087;28;20034;-43
2023/10/10 14:34:19;;;;;;;57.72;6.13;;;;;;;;;;5114745;28;20020;-41
2023/10/10 14:36:50;;;;;;;87.82;7.60;;;;;;;;;;5114701;28;20080;-40
2023/10/10 14:39:44;;;;;;;67.72;7.40;;;;;;;;;;5114500;28;20412;-41
2023/10/10 14:42:13;;;;;;;67.65;7.45;;;;;;;;;;5114284;28;20043;-42
2023/10/10 14:44:40;;;;;;;68.95;8.05;;;;;;;;;;5114442;28;20039;-40
2023/10/10 14:47:09;;;;;;;111.47;9.63;;;;;;;;;;5113611;28;20024;-44
2023/10/10 14:49:38;;;;;;;99.38;11.32;;;;;;;;;;5114434;28;20477;-43
2023/10/10 14:52:06;;;;;;;91.70;9.40;;;;;;;;;;5114284;28;20044;-41
2023/10/10 14:54:48;;;;;;;64.68;7.10;;;;;;;;;;5114192;28;20059;-44
2023/10/10 14:57:24;;;;;;;63.63;7.22;;;;;;;;;;5113796;28;20397;-40
2023/10/10 14:59:55;;;;;;;54.20;7.13;;;;;;;;;;5114150;28;20035;-41
2023/10/10 15:02:26;;;;;;;55.63;8.10;;;;;;;;;;5113178;28;20054;-40
2023/10/10 15:04:54;;;;;;;54.33;6.22;;;;;;;;;;5113721;28;20031;-40
2023/10/10 15:07:21;;;;;;;57.92;6.45;;;;;;;;;;5113831;28;20040;-42
2023/10/10 15:09:48;;;;;;;54.83;6.20;;;;;;;;;;5113524;28;20481;-44
2023/10/10 15:12:15;;;;;;;75.40;9.35;;;;;;;;;;5113820;28;20036;-43
2023/10/10 15:14:42;;;;;;;67.55;7.68;;;;;;;;;;5114024;28;20039;-44
2023/10/10 15:17:09;;;;;;;53.17;7.35;;;;;;;;;;5113867;28;20035;-44
2023/10/10 15:19:41;;;;;;;53.38;6.53;;;;;;;;;;5113817;28;20061;-43
2023/10/10 15:22:15;;;;;;;46.97;5.83;;;;;;;;;;5113580;28;20052;-41
2023/10/10 15:24:42;;;;;;;96.78;11.52;;;;;;;;;;5113594;28;20032;-41
2023/10/10 15:27:10;;;;;;;126.30;12.60;;;;;;;;;;5113317;28;20401;-42
2023/10/10 15:29:42;;;;;;;74.35;8.25;;;;;;;;;;5113785;28;20036;-44
2023/10/10 15:32:09;;;;;;;61.33;7.00;;;;;;;;;;5113023;28;20039;-43
2023/10/10 15:34:37;;;;;;;50.65;6.40;;;;;;;;;;5112698;28;20432;-44
2023/10/10 15:37:14;;;;;;;67.65;7.53;;;;;;;;;;5113429;28;20035;-41
2023/10/10 15:39:42;;;;;;;61.63;6.78;;;;;;;;;;5113085;28;20074;-43
2023/10/10 15:42:10;;;;;;;68.07;7.22;;;;;;;;;;5112274;28;20038;-45
2023/10/10 15:44:41;;;;;;;70.57;9.23;;;;;;;;;;5112768;28;20106;-43
2023/10/10 15:47:08;;;;;;;47.17;5.95;;;;;;;;;;5113502;28;20130;-42
2023/10/10 15:49:35;;;;;;;43.28;5.97;;;;;;;;;;5112903;28;20481;-44
2023/10/10 15:52:03;;;;;;;67.93;7.53;;;;;;;;;;5112905;28;20038;-42
2023/10/10 15:54:33;;;;;;;123.57;12.15;;;;;;;;;;5112682;28;20044;-40
2023/10/10 15:57:08;;;;;;;84.78;8.73;;;;;;;;;;5105709;28;20054;-41
2023/10/10 15:59:41;;;;;;;54.50;7.25;;;;;;;;;;5112810;28;20037;-42
2023/10/10 16:02:09;;;;;;;53.05;6.05;;;;;;;;;;5112150;28;20503;-41
2023/10/10 16:04:42;;;;;;;71.00;7.32;;;;;;;;;;5111938;28;20489;-42
2023/10/10 16:07:09;;;;;;;74.05;7.47;;;;;;;;;;5112562;28;20077;-41
2023/10/10 16:09:36;;;;;;;70.03;7.68;;;;;;;;;;5112102;28;20585;-43
2023/10/10 16:12:07;;;;;;;72.47;8.93;;;;;;;;;;5112311;28;20024;-43
2023/10/10 16:14:36;;;;;;;81.13;8.52;;;;;;;;;;5112554;28;20039;-42
2023/10/10 16:17:03;;;;;;;84.03;8.68;;;;;;;;;;5085716;28;20039;-44
2023/10/10 16:19:32;;;;;;;62.50;7.85;;;;;;;;;;5111964;28;20027;-54
2023/10/10 16:22:03;;;;;;;61.35;6.93;;;;;;;;;;5112559;28;20055;-46
2023/10/10 16:24:30;;;;;;;49.63;7.05;;;;;;;;;;5112211;28;20416;-51
2023/10/10 16:27:01;;;;;;;56.38;6.13;;;;;;;;;;5112168;28;20385;-44
2023/10/10 16:29:34;;;;;;;55.75;5.85;;;;;;;;;;5099107;28;20122;-44
2023/10/10 16:32:09;;;;;;;46.72;5.18;;;;;;;;;;5112391;28;20057;-48
2023/10/10 16:34:36;;;;;;;81.50;8.60;;;;;;;;;;5112474;28;20493;-47
2023/10/10 16:37:05;;;;;;;66.88;6.90;;;;;;;;;;5111621;28;20558;-46
2023/10/10 16:39:32;;;;;;;46.95;5.32;;;;;;;;;;5112379;28;20069;-46
2023/10/10 16:41:59;;;;;;;47.63;5.68;;;;;;;;;;5110979;28;20044;-43
2023/10/10 16:44:26;;;;;;;49.13;5.35;;;;;;;;;;5112159;28;20032;-43
2023/10/10 16:46:53;;;;;;;40.45;4.85;;;;;;;;;;5112125;28;20073;-45
2023/10/10 16:49:22;;;;;;;52.30;5.68;;;;;;;;;;5111977;28;20038;-44
2023/10/10 16:51:49;;;;;;;55.45;4.70;;;;;;;;;;5111864;28;20023;-41
2023/10/10 16:54:18;;;;;;;62.42;5.88;;;;;;;;;;5111442;28;20082;-45
2023/10/10 16:56:45;;;;;;;52.28;5.72;;;;;;;;;;5111747;28;20039;-41
2023/10/10 16:59:14;;;;;;;56.92;5.78;;;;;;;;;;5111887;28;20077;-41
2023/10/10 17:01:44;;;;;;;47.83;5.10;;;;;;;;;;5111489;28;20539;-41
2023/10/10 17:04:11;;;;;;;38.58;5.40;;;;;;;;;;5111435;28;20049;-42
2023/10/10 17:06:38;;;;;;;42.17;5.15;;;;;;;;;;5098550;28;20038;-41
2023/10/10 17:09:05;;;;;;;37.17;4.80;;;;;;;;;;5111817;28;20053;-42
2023/10/10 17:11:32;;;;;;;35.60;4.72;;;;;;;;;;5111354;28;20072;-41
2023/10/10 17:14:03;;;;;;;109.88;9.75;;;;;;;;;;5111671;28;20039;-42
2023/10/10 17:16:31;;;;;;;96.75;8.70;;;;;;;;;;5111702;28;20092;-43
2023/10/10 17:18:58;;;;;;;71.32;7.00;;;;;;;;;;5111634;28;20035;-41
2023/10/10 17:21:27;;;;;;;51.40;6.88;;;;;;;;;;5111161;28;20159;-42
2023/10/10 17:23:59;;;;;;;68.07;7.05;;;;;;;;;;5111399;28;20478;-43
2023/10/10 17:26:26;;;;;;;51.03;5.72;;;;;;;;;;5111361;28;20092;-42
2023/10/10 17:28:55;;;;;;;49.83;5.80;;;;;;;;;;5111266;28;20084;-40
2023/10/10 17:31:22;;;;;;;61.22;6.13;;;;;;;;;;5111886;28;20051;-41
2023/10/10 17:33:53;;;;;;;58.58;6.80;;;;;;;;;;5093227;28;20426;-43
2023/10/10 17:36:21;;;;;;;44.95;4.80;;;;;;;;;;5111620;28;20031;-41
2023/10/10 17:38:48;;;;;;;43.50;3.92;;;;;;;;;;5111705;28;20024;-41
2023/10/10 17:41:16;;;;;;;89.38;8.02;;;;;;;;;;5110715;28;20069;-40
2023/10/10 17:43:43;;;;;;;72.47;6.45;;;;;;;;;;5110854;28;20419;-43
2023/10/10 17:46:16;;;;;;;71.32;8.23;;;;;;;;;;5111364;28;20054;-49
2023/10/10 17:48:44;;;;;;;73.72;7.88;;;;;;;;;;5111799;28;20024;-41
2023/10/10 17:51:20;;;;;;;83.13;8.13;;;;;;;;;;5111785;28;20051;-43
2023/10/10 17:53:47;;;;;;;71.68;7.45;;;;;;;;;;5111776;28;20043;-49
2023/10/10 17:56:14;;;;;;;64.95;6.20;;;;;;;;;;5111668;28;20072;-40
2023/10/10 17:58:41;;;;;;;48.85;5.85;;;;;;;;;;5111731;28;20047;-42
2023/10/10 18:01:12;;;;;;;48.53;4.70;;;;;;;;;;5107266;28;20047;-41
2023/10/10 18:03:42;;;;;;;41.80;4.60;;;;;;;;;;5091182;28;20391;-47
2023/10/10 18:06:26;;;;;;;77.68;7.95;;;;;;;;;;5094590;28;20039;-40